createdAt,value
2023-02-21T00:00:40.640Z,0.00
2023-02-21T00:05:40.749Z,0.00
2023-02-21T00:10:40.542Z,0.00
2023-02-21T00:15:40.448Z,0.00
2023-02-21T00:20:40.369Z,0.00
2023-02-21T00:25:40.311Z,0.00
2023-02-21T00:30:40.334Z,0.00
2023-02-21T00:35:40.185Z,0.00
2023-02-21T00:40:40.103Z,0.00
2023-02-21T00:45:40.093Z,0.00
2023-02-21T00:50:39.971Z,0.00
2023-02-21T00:55:39.915Z,0.00
2023-02-21T01:00:39.858Z,0.00
2023-02-21T01:05:39.793Z,0.00
2023-02-21T01:10:39.745Z,0.00
2023-02-21T01:15:39.733Z,0.00
2023-02-21T01:20:39.582Z,0.00
2023-02-21T01:25:39.527Z,0.00
2023-02-21T01:30:39.657Z,0.00
2023-02-21T01:35:39.395Z,0.00
2023-02-21T01:40:39.319Z,0.00
2023-02-21T01:45:39.261Z,0.00
2023-02-21T01:50:39.186Z,0.00
2023-02-21T01:55:39.127Z,0.00
2023-02-21T02:00:39.055Z,0.00
2023-02-21T02:05:39.002Z,0.00
2023-02-21T02:10:38.923Z,0.00
2023-02-21T02:15:38.887Z,0.00
2023-02-21T02:20:38.790Z,0.00
2023-02-21T02:25:38.732Z,0.00
2023-02-21T02:30:38.739Z,0.00
2023-02-21T02:35:38.600Z,0.00
2023-02-21T02:40:38.526Z,0.00
2023-02-21T02:45:38.465Z,0.00
2023-02-21T02:50:38.390Z,0.00
2023-02-21T02:55:38.338Z,0.00
2023-02-21T03:00:38.260Z,0.00
2023-02-21T03:05:38.199Z,0.00
2023-02-21T03:10:38.137Z,0.00
2023-02-21T03:15:38.072Z,0.00
2023-02-21T03:20:37.996Z,0.00
2023-02-21T03:25:37.935Z,0.00
2023-02-21T03:30:37.899Z,0.00
2023-02-21T03:35:37.803Z,0.00
2023-02-21T03:40:37.733Z,0.00
2023-02-21T03:45:37.667Z,0.00
2023-02-21T03:50:37.610Z,0.00
2023-02-21T03:55:37.541Z,0.00
2023-02-21T04:00:37.515Z,0.00
2023-02-21T04:05:37.405Z,0.00
2023-02-21T04:10:46.767Z,0.00
2023-02-21T04:15:38.304Z,0.00
2023-02-21T04:20:37.214Z,0.00
2023-02-21T04:25:37.143Z,0.00
2023-02-21T04:30:37.107Z,0.00
2023-02-21T04:35:36.998Z,0.00
2023-02-21T04:40:36.942Z,0.00
2023-02-21T04:45:36.920Z,0.00
2023-02-21T04:50:36.825Z,0.00
2023-02-21T04:55:36.738Z,0.00
2023-02-21T05:00:36.678Z,0.00
2023-02-21T05:05:36.603Z,0.00
2023-02-21T05:10:45.190Z,0.00
2023-02-21T05:15:37.504Z,0.00
2023-02-21T05:20:36.412Z,0.00
2023-02-21T05:25:36.340Z,0.00
2023-02-21T05:30:36.392Z,0.00
2023-02-21T05:35:36.219Z,0.00
2023-02-21T05:40:36.159Z,0.00
2023-02-21T05:45:36.088Z,4.00
2023-02-21T05:50:36.015Z,4.00
2023-02-21T05:55:35.944Z,8.00
2023-02-21T06:00:35.890Z,28.00
2023-02-21T06:05:35.822Z,60.00
2023-02-21T06:10:35.750Z,112.00
2023-02-21T06:15:35.737Z,260.00
2023-02-21T06:20:35.625Z,204.00
2023-02-21T06:25:35.547Z,144.00
2023-02-21T06:30:35.666Z,152.00
2023-02-21T06:35:35.416Z,196.00
2023-02-21T06:40:35.361Z,288.00
2023-02-21T06:45:35.289Z,360.00
2023-02-21T06:50:35.232Z,456.00
2023-02-21T06:55:35.160Z,636.00
2023-02-21T07:00:35.105Z,740.00
2023-02-21T07:05:35.032Z,960.00
2023-02-21T07:10:34.994Z,1304.00
2023-02-21T07:15:34.913Z,2224.00
2023-02-21T07:20:34.838Z,6880.00
2023-02-21T07:25:34.764Z,7116.00
2023-02-21T07:30:34.820Z,3936.00
2023-02-21T07:35:34.636Z,2904.00
2023-02-21T07:40:34.574Z,2140.00
2023-02-21T07:45:34.498Z,2420.00
2023-02-21T07:50:34.444Z,3260.00
2023-02-21T07:55:34.370Z,4184.00
2023-02-21T08:00:34.312Z,5268.00
2023-02-21T08:05:34.237Z,4692.00
2023-02-21T08:10:34.180Z,6916.00
2023-02-21T08:15:34.103Z,11068.00
2023-02-21T08:20:34.043Z,10540.00
2023-02-21T08:25:33.967Z,14672.00
2023-02-21T08:30:33.988Z,13972.00
2023-02-21T08:35:33.842Z,11832.00
2023-02-21T08:40:33.786Z,11056.00
2023-02-21T08:45:33.707Z,9296.00
2023-02-21T08:50:33.654Z,8016.00
2023-02-21T08:55:33.579Z,7408.00
2023-02-21T09:00:33.519Z,7352.00
2023-02-21T09:05:33.448Z,8748.00
2023-02-21T09:10:33.422Z,10420.00
2023-02-21T09:15:33.332Z,14400.00
2023-02-21T09:20:33.259Z,13408.00
2023-02-21T09:25:33.185Z,14112.00
2023-02-21T09:30:33.248Z,36672.00
2023-02-21T09:35:33.054Z,20800.00
2023-02-21T09:40:33.001Z,23616.00
2023-02-21T09:45:32.962Z,14556.00
2023-02-21T09:50:32.892Z,13308.00
2023-02-21T09:55:32.808Z,17728.00
2023-02-21T10:00:32.737Z,34304.00
2023-02-21T10:05:32.656Z,21504.00
2023-02-21T10:10:32.596Z,21440.00
2023-02-21T10:15:32.523Z,60000.00
2023-02-21T10:20:32.465Z,25056.00
2023-02-21T10:25:32.408Z,61824.00
2023-02-21T10:30:32.436Z,55520.00
2023-02-21T10:35:32.264Z,57664.00
2023-02-21T10:40:32.202Z,56128.00
2023-02-21T10:45:32.129Z,29792.00
2023-02-21T10:50:32.071Z,20000.00
2023-02-21T10:55:33.506Z,30816.00
2023-02-21T11:00:31.950Z,31680.00
2023-02-21T11:05:31.871Z,54528.00
2023-02-21T11:10:31.820Z,55808.00
2023-02-21T11:15:31.769Z,50464.00
2023-02-21T11:20:31.696Z,18656.00
2023-02-21T11:25:31.620Z,16864.00
2023-02-21T11:30:31.615Z,62496.00
2023-02-21T11:35:31.494Z,51712.00
2023-02-21T11:40:31.440Z,47200.00
2023-02-21T11:45:31.378Z,29760.00
2023-02-21T11:50:31.317Z,18656.00
2023-02-21T11:55:31.237Z,15476.00
2023-02-21T12:00:31.181Z,12660.00
2023-02-21T12:05:31.195Z,11792.00
2023-02-21T12:10:31.043Z,7628.00
2023-02-21T12:15:31.021Z,6604.00
2023-02-21T12:20:30.925Z,5192.00
2023-02-21T12:25:30.844Z,5464.00
2023-02-21T12:30:30.874Z,10420.00
2023-02-21T12:35:30.747Z,9480.00
2023-02-21T12:40:30.657Z,9908.00
2023-02-21T12:45:30.585Z,11528.00
2023-02-21T12:50:33.224Z,10292.00
2023-02-21T12:55:30.474Z,8740.00
2023-02-21T13:00:30.399Z,10064.00
2023-02-21T13:05:30.324Z,10868.00
2023-02-21T13:10:30.261Z,11644.00
2023-02-21T13:15:30.188Z,9236.00
2023-02-21T13:20:30.131Z,10184.00
2023-02-21T13:25:30.055Z,9720.00
2023-02-21T13:30:30.143Z,9412.00
2023-02-21T13:35:29.926Z,9120.00
2023-02-21T13:40:29.872Z,8280.00
2023-02-21T13:45:29.795Z,7424.00
2023-02-21T13:50:29.739Z,6664.00
2023-02-21T13:55:29.670Z,6232.00
2023-02-21T14:00:29.640Z,5244.00
2023-02-21T14:05:29.532Z,4480.00
2023-02-21T14:10:29.475Z,5496.00
2023-02-21T14:15:29.397Z,5128.00
2023-02-21T14:20:29.347Z,5052.00
2023-02-21T14:25:29.264Z,5624.00
2023-02-21T14:30:29.209Z,4956.00
2023-02-21T14:35:29.130Z,4772.00
2023-02-21T14:40:29.074Z,4640.00
2023-02-21T14:45:29.021Z,4888.00
2023-02-21T14:50:28.945Z,4584.00
2023-02-21T14:55:28.874Z,4384.00
2023-02-21T15:00:28.823Z,4412.00
2023-02-21T15:05:28.753Z,4052.00
2023-02-21T15:10:28.687Z,3444.00
2023-02-21T15:15:28.642Z,3672.00
2023-02-21T15:20:28.564Z,3348.00
2023-02-21T15:25:28.488Z,3292.00
2023-02-21T15:30:28.597Z,3224.00
2023-02-21T15:35:28.355Z,3032.00
2023-02-21T15:40:28.302Z,2648.00
2023-02-21T15:45:28.230Z,2404.00
2023-02-21T15:50:28.173Z,1952.00
2023-02-21T15:55:28.102Z,1620.00
2023-02-21T16:00:28.121Z,1400.00
2023-02-21T16:05:27.979Z,1200.00
2023-02-21T16:10:27.917Z,1024.00
2023-02-21T16:15:27.901Z,844.00
2023-02-21T16:20:27.789Z,684.00
2023-02-21T16:25:27.721Z,532.00
2023-02-21T16:30:27.878Z,380.00
2023-02-21T16:35:27.596Z,244.00
2023-02-21T16:40:27.530Z,152.00
2023-02-21T16:45:27.461Z,80.00
2023-02-21T16:50:27.399Z,36.00
2023-02-21T16:55:27.327Z,16.00
2023-02-21T17:00:27.267Z,4.00
2023-02-21T17:05:27.202Z,4.00
2023-02-21T17:10:27.138Z,0.00
2023-02-21T17:15:27.079Z,0.00
2023-02-21T17:20:27.009Z,0.00
2023-02-21T17:25:26.933Z,0.00
2023-02-21T17:30:26.983Z,0.00
2023-02-21T17:35:26.803Z,0.00
2023-02-21T17:40:26.744Z,0.00
2023-02-21T17:45:26.678Z,0.00
2023-02-21T17:50:26.618Z,0.00
2023-02-21T17:55:26.574Z,0.00
2023-02-21T18:00:26.490Z,0.00
2023-02-21T18:05:26.421Z,0.00
2023-02-21T18:10:26.352Z,0.00
2023-02-21T18:15:26.279Z,0.00
2023-02-21T18:20:26.224Z,0.00
2023-02-21T18:25:26.152Z,0.00
2023-02-21T18:30:26.098Z,0.00
2023-02-21T18:35:26.029Z,0.00
2023-02-21T18:40:25.965Z,0.00
2023-02-21T18:45:25.892Z,0.00
2023-02-21T18:50:25.833Z,0.00
2023-02-21T18:55:25.774Z,0.00
2023-02-21T19:00:25.704Z,0.00
2023-02-21T19:05:25.632Z,0.00
2023-02-21T19:10:25.586Z,0.00
2023-02-21T19:15:25.498Z,0.00
2023-02-21T19:20:25.445Z,0.00
2023-02-21T19:25:25.371Z,0.00
2023-02-21T19:30:25.372Z,0.00
2023-02-21T19:35:25.238Z,0.00
2023-02-21T19:40:25.180Z,0.00
2023-02-21T19:45:25.188Z,0.00
2023-02-21T19:50:25.055Z,0.00
2023-02-21T19:55:24.976Z,0.00
2023-02-21T20:00:24.915Z,0.00
2023-02-21T20:05:24.845Z,0.00
2023-02-21T20:10:24.789Z,0.00
2023-02-21T20:15:24.717Z,0.00
2023-02-21T20:20:24.656Z,0.00
2023-02-21T20:25:24.589Z,0.00
2023-02-21T20:30:25.094Z,0.00
2023-02-21T20:35:24.451Z,0.00
2023-02-21T20:40:24.394Z,0.00
2023-02-21T20:45:24.321Z,0.00
2023-02-21T20:50:24.288Z,0.00
2023-02-21T20:55:24.195Z,0.00
2023-02-21T21:00:24.132Z,0.00
2023-02-21T21:05:24.058Z,0.00
2023-02-21T21:10:24.009Z,0.00
2023-02-21T21:15:23.930Z,0.00
2023-02-21T21:20:23.887Z,0.00
2023-02-21T21:25:23.799Z,0.00
2023-02-21T21:30:23.954Z,0.00
2023-02-21T21:35:23.821Z,0.00
2023-02-21T21:40:23.861Z,0.00
2023-02-21T21:45:25.097Z,0.00
2023-02-21T21:50:23.481Z,0.00
2023-02-21T21:55:23.417Z,0.00
2023-02-21T22:00:23.353Z,0.00
2023-02-21T22:05:23.277Z,0.00
2023-02-21T22:10:23.218Z,0.00
2023-02-21T22:15:23.148Z,0.00
2023-02-21T22:20:23.085Z,0.00
2023-02-21T22:25:23.013Z,0.00
2023-02-21T22:30:23.108Z,0.00
2023-02-21T22:35:22.885Z,0.00
2023-02-21T22:40:22.824Z,0.00
2023-02-21T22:45:22.748Z,0.00
2023-02-21T22:50:22.705Z,0.00
2023-02-21T22:55:22.614Z,0.00
2023-02-21T23:00:22.563Z,0.00
2023-02-21T23:05:22.481Z,0.00
2023-02-21T23:10:22.422Z,0.00
2023-02-21T23:15:22.361Z,0.00
2023-02-21T23:20:22.327Z,0.00
2023-02-21T23:25:22.217Z,0.00
2023-02-21T23:30:22.197Z,0.00
2023-02-21T23:35:22.089Z,0.00
2023-02-21T23:40:22.032Z,0.00
2023-02-21T23:45:21.960Z,0.00
2023-02-21T23:50:21.906Z,0.00
2023-02-21T23:55:21.836Z,0.00
